createdAt,value
2019-05-17T00:01:42.428Z,4.78
2019-05-17T00:04:12.800Z,4.90
2019-05-17T00:06:43.192Z,4.85
2019-05-17T00:09:13.561Z,5.03
2019-05-17T00:11:43.952Z,5.08
2019-05-17T00:14:16.618Z,5.00
2019-05-17T00:16:47.017Z,5.10
2019-05-17T00:19:17.487Z,5.62
2019-05-17T00:21:47.867Z,5.42
2019-05-17T00:24:19.304Z,5.83
2019-05-17T00:26:49.709Z,5.97
2019-05-17T00:29:20.086Z,5.62
2019-05-17T00:31:50.673Z,5.47
2019-05-17T00:34:21.043Z,5.60
2019-05-17T00:36:52.496Z,6.05
2019-05-17T00:39:22.872Z,5.75
2019-05-17T00:41:53.777Z,5.37
2019-05-17T00:44:24.146Z,5.75
2019-05-17T00:46:54.536Z,5.92
2019-05-17T00:49:26.446Z,6.00
2019-05-17T00:51:56.949Z,6.47
2019-05-17T00:54:27.311Z,6.03
2019-05-17T00:56:57.887Z,6.40
2019-05-17T00:59:28.253Z,5.58
2019-05-17T01:01:58.651Z,6.28
2019-05-17T01:04:29.023Z,6.75
2019-05-17T01:06:59.538Z,6.10
2019-05-17T01:09:29.906Z,6.40
2019-05-17T01:12:00.368Z,6.67
2019-05-17T01:14:30.744Z,6.95
2019-05-17T01:17:01.133Z,7.22
2019-05-17T01:19:31.516Z,6.15
2019-05-17T01:22:01.905Z,6.75
2019-05-17T01:24:32.775Z,6.87
2019-05-17T01:27:03.159Z,6.42
2019-05-17T01:29:33.525Z,7.17
2019-05-17T01:32:06.524Z,6.95
2019-05-17T01:34:37.644Z,6.75
2019-05-17T01:37:08.283Z,7.22
2019-05-17T01:39:38.663Z,7.05
2019-05-17T01:42:09.050Z,6.67
2019-05-17T01:44:39.429Z,7.30
2019-05-17T01:47:09.886Z,6.95
2019-05-17T01:49:40.257Z,7.20
2019-05-17T01:52:10.656Z,6.97
2019-05-17T01:54:41.294Z,7.87
2019-05-17T01:57:11.680Z,7.35
2019-05-17T01:59:42.092Z,7.47
2019-05-17T02:02:16.308Z,7.25
2019-05-17T02:04:46.766Z,7.22
2019-05-17T02:07:17.379Z,7.00
2019-05-17T02:09:47.850Z,7.22
2019-05-17T02:12:19.200Z,7.72
2019-05-17T02:14:49.558Z,7.05
2019-05-17T02:17:20.022Z,7.00
2019-05-17T02:19:50.390Z,6.50
2019-05-17T02:22:20.777Z,7.65
2019-05-17T02:24:51.147Z,7.55
2019-05-17T02:27:24.276Z,7.22
2019-05-17T02:29:54.003Z,6.75
2019-05-17T02:32:24.757Z,7.87
2019-05-17T02:34:55.128Z,7.17
2019-05-17T02:37:25.639Z,6.72
2019-05-17T02:40:03.230Z,6.75
2019-05-17T02:42:28.897Z,7.37
2019-05-17T02:45:02.623Z,8.23
2019-05-17T02:47:33.582Z,6.95
2019-05-17T02:50:05.643Z,6.85
2019-05-17T02:52:36.328Z,6.95
2019-05-17T02:55:07.897Z,7.67
2019-05-17T02:57:38.296Z,6.97
2019-05-17T03:00:12.549Z,7.65
2019-05-17T03:02:43.412Z,7.65
2019-05-17T03:05:14.435Z,7.30
2019-05-17T03:07:44.873Z,7.78
2019-05-17T03:10:23.946Z,7.72
2019-05-17T03:12:47.657Z,7.28
2019-05-17T03:15:18.193Z,7.53
2019-05-17T03:17:48.873Z,7.08
2019-05-17T03:20:22.924Z,8.33
2019-05-17T03:22:52.725Z,8.18
2019-05-17T03:25:24.030Z,8.50
2019-05-17T03:27:54.464Z,7.37
2019-05-17T03:30:26.184Z,8.10
2019-05-17T03:32:57.347Z,7.60
2019-05-17T03:35:27.769Z,8.53
2019-05-17T03:37:58.207Z,9.10
2019-05-17T03:40:56.555Z,8.23
2019-05-17T03:43:02.768Z,8.48
2019-05-17T03:45:34.439Z,9.18
2019-05-17T03:48:05.383Z,8.23
2019-05-17T03:50:35.874Z,8.68
2019-05-17T03:53:06.244Z,9.73
2019-05-17T03:55:36.646Z,9.28
2019-05-17T03:58:07.014Z,11.03
2019-05-17T04:00:37.396Z,9.93
2019-05-17T04:03:07.786Z,9.48
2019-05-17T04:05:38.158Z,10.38
2019-05-17T04:08:08.550Z,9.20
2019-05-17T04:10:42.364Z,10.53
2019-05-17T04:13:12.922Z,10.18
2019-05-17T04:15:43.506Z,10.70
2019-05-17T04:18:14.315Z,9.80
2019-05-17T04:20:44.681Z,10.82
2019-05-17T04:23:15.180Z,11.88
2019-05-17T04:25:46.625Z,10.70
2019-05-17T04:28:17.104Z,10.38
2019-05-17T04:30:47.477Z,10.00
2019-05-17T04:33:17.891Z,9.65
2019-05-17T04:35:48.248Z,9.73
2019-05-17T04:38:18.806Z,9.65
2019-05-17T04:40:49.163Z,9.80
2019-05-17T04:43:22.898Z,10.23
2019-05-17T04:45:53.526Z,9.68
2019-05-17T04:48:24.263Z,9.75
2019-05-17T04:50:54.640Z,10.18
2019-05-17T04:53:25.035Z,9.93
2019-05-17T04:55:55.409Z,10.08
2019-05-17T04:58:26.046Z,10.20
2019-05-17T05:00:57.403Z,9.63
2019-05-17T05:03:27.791Z,10.30
2019-05-17T05:05:58.179Z,9.53
2019-05-17T05:08:32.912Z,10.00
2019-05-17T05:11:03.218Z,9.60
2019-05-17T05:13:33.521Z,10.75
2019-05-17T05:16:04.089Z,10.28
2019-05-17T05:18:34.487Z,9.50
2019-05-17T05:21:04.867Z,10.25
2019-05-17T05:23:35.250Z,10.15
2019-05-17T05:26:05.687Z,9.53
2019-05-17T05:28:36.107Z,9.00
2019-05-17T05:31:06.484Z,9.38
2019-05-17T05:33:36.881Z,9.40
2019-05-17T05:36:07.820Z,8.93
2019-05-17T05:38:38.211Z,9.90
2019-05-17T05:41:12.071Z,9.95
2019-05-17T05:43:42.029Z,9.20
2019-05-17T05:46:12.508Z,10.18
2019-05-17T05:48:43.006Z,8.73
2019-05-17T05:51:13.842Z,10.18
2019-05-17T05:53:44.621Z,10.65
2019-05-17T05:56:15.017Z,9.30
2019-05-17T05:58:45.411Z,10.25
2019-05-17T06:01:15.777Z,9.73
2019-05-17T06:03:46.172Z,9.78
2019-05-17T06:06:16.546Z,9.80
2019-05-17T06:08:46.950Z,8.85
2019-05-17T06:11:17.327Z,8.38
2019-05-17T06:13:47.737Z,8.83
2019-05-17T06:16:18.140Z,8.63
2019-05-17T06:18:48.547Z,8.53
2019-05-17T06:21:18.924Z,7.90
2019-05-17T06:23:51.539Z,7.20
2019-05-17T06:26:23.740Z,8.40
2019-05-17T06:28:53.639Z,7.65
2019-05-17T06:31:24.209Z,8.25
2019-05-17T06:33:54.686Z,8.15
2019-05-17T06:36:25.064Z,8.33
2019-05-17T06:38:55.439Z,7.92
2019-05-17T06:41:25.808Z,8.53
2019-05-17T06:43:56.210Z,8.98
2019-05-17T06:46:26.580Z,8.05
2019-05-17T06:48:56.970Z,8.93
2019-05-17T06:51:27.343Z,8.90
2019-05-17T06:53:57.736Z,8.30
2019-05-17T06:56:28.103Z,9.33
2019-05-17T06:58:58.499Z,9.33
2019-05-17T07:01:29.272Z,8.60
2019-05-17T07:04:00.278Z,8.35
2019-05-17T07:06:32.472Z,8.45
2019-05-17T07:09:02.942Z,8.65
2019-05-17T07:11:33.390Z,8.45
2019-05-17T07:14:03.857Z,8.18
2019-05-17T07:16:34.239Z,8.15
2019-05-17T07:19:04.648Z,7.65
2019-05-17T07:21:35.015Z,7.60
2019-05-17T07:24:05.432Z,7.92
2019-05-17T07:26:39.232Z,7.65
2019-05-17T07:29:10.100Z,7.65
2019-05-17T07:31:40.654Z,7.03
2019-05-17T07:34:11.076Z,7.65
2019-05-17T07:36:41.454Z,7.78
2019-05-17T07:39:11.834Z,8.08
2019-05-17T07:41:42.206Z,7.87
2019-05-17T07:44:12.598Z,7.75
2019-05-17T07:46:43.050Z,7.10
2019-05-17T07:49:13.529Z,8.18
2019-05-17T07:51:43.896Z,7.70
2019-05-17T07:54:14.280Z,7.17
2019-05-17T07:56:45.414Z,7.50
2019-05-17T07:59:15.815Z,7.05
2019-05-17T08:01:46.183Z,6.45
2019-05-17T08:04:16.555Z,5.53
2019-05-17T08:06:46.920Z,6.67
2019-05-17T08:09:20.458Z,6.33
2019-05-17T08:11:50.603Z,6.53
2019-05-17T08:14:29.546Z,5.62
2019-05-17T08:16:53.186Z,6.30
2019-05-17T08:19:23.568Z,6.00
2019-05-17T08:21:54.022Z,5.90
2019-05-17T08:24:24.405Z,5.72
2019-05-17T08:26:54.784Z,5.12
2019-05-17T08:29:25.283Z,5.33
2019-05-17T08:31:55.660Z,4.87
2019-05-17T08:34:26.045Z,4.60
2019-05-17T08:36:56.404Z,4.95
2019-05-17T08:39:26.796Z,4.78
2019-05-17T08:41:57.247Z,5.03
2019-05-17T08:44:29.805Z,4.92
2019-05-17T08:47:00.850Z,5.10
2019-05-17T08:49:31.309Z,4.87
2019-05-17T08:52:01.674Z,4.92
2019-05-17T08:54:32.061Z,5.78
2019-05-17T08:57:02.443Z,5.30
2019-05-17T08:59:32.841Z,5.47
2019-05-17T09:02:03.214Z,4.85
2019-05-17T09:04:34.675Z,5.40
2019-05-17T09:07:05.124Z,5.37
2019-05-17T09:09:35.503Z,6.37
2019-05-17T09:12:05.945Z,5.62
2019-05-17T09:14:36.334Z,5.55
2019-05-17T09:17:06.709Z,5.67
2019-05-17T09:19:39.356Z,5.47
2019-05-17T09:22:10.454Z,5.22
2019-05-17T09:24:41.103Z,5.58
2019-05-17T09:27:11.483Z,5.33
2019-05-17T09:29:41.892Z,5.15
2019-05-17T09:32:12.270Z,5.65
2019-05-17T09:34:42.640Z,5.12
2019-05-17T09:37:14.872Z,4.67
2019-05-17T09:39:45.121Z,4.95
2019-05-17T09:42:15.483Z,5.10
2019-05-17T09:44:45.887Z,4.20
2019-05-17T09:47:16.259Z,4.20
2019-05-17T09:49:46.659Z,4.00
2019-05-17T09:52:17.023Z,3.80
2019-05-17T09:54:47.419Z,4.53
2019-05-17T09:57:20.269Z,3.90
2019-05-17T09:59:49.948Z,4.42
2019-05-17T10:02:20.538Z,3.75
2019-05-17T10:04:50.986Z,3.95
2019-05-17T10:07:21.352Z,4.17
2019-05-17T10:09:52.575Z,3.98
2019-05-17T10:12:22.942Z,3.90
2019-05-17T10:14:53.341Z,3.90
2019-05-17T10:17:23.711Z,3.85
2019-05-17T10:19:54.104Z,5.03
2019-05-17T10:22:24.539Z,4.70
2019-05-17T10:24:54.992Z,4.50
2019-05-17T10:27:25.360Z,4.80
2019-05-17T10:29:55.942Z,4.90
2019-05-17T10:32:26.311Z,4.22
2019-05-17T10:34:56.705Z,3.95
2019-05-17T10:37:27.081Z,5.10
2019-05-17T10:39:57.462Z,4.40
2019-05-17T10:42:30.433Z,4.30
2019-05-17T10:45:00.982Z,5.22
2019-05-17T10:47:31.428Z,4.45
2019-05-17T10:50:01.815Z,5.40
2019-05-17T10:52:32.277Z,4.75
2019-05-17T10:55:02.654Z,4.58
2019-05-17T10:57:34.617Z,5.28
2019-05-17T11:00:10.767Z,4.92
2019-05-17T11:02:41.279Z,4.58
2019-05-17T11:05:12.309Z,4.72
2019-05-17T11:07:42.680Z,4.65
2019-05-17T11:10:13.773Z,4.65
2019-05-17T11:12:44.137Z,4.37
2019-05-17T11:15:15.031Z,3.52
2019-05-17T11:17:45.402Z,4.47
2019-05-17T11:20:16.398Z,4.08
2019-05-17T11:22:46.836Z,4.10
2019-05-17T11:25:17.357Z,4.28
2019-05-17T11:27:47.750Z,4.83
2019-05-17T11:30:19.715Z,4.28
2019-05-17T11:32:50.087Z,5.00
2019-05-17T11:35:24.610Z,4.50
2019-05-17T11:37:53.554Z,4.58
2019-05-17T11:40:24.357Z,4.67
2019-05-17T11:42:54.732Z,4.50
2019-05-17T11:45:29.065Z,4.40
2019-05-17T11:47:57.251Z,4.40
2019-05-17T11:50:27.714Z,3.52
2019-05-17T11:52:58.093Z,3.87
2019-05-17T11:55:28.686Z,3.85
2019-05-17T11:57:59.046Z,4.15
2019-05-17T12:00:30.238Z,3.15
2019-05-17T12:03:00.605Z,2.87
2019-05-17T12:05:31.541Z,3.52
2019-05-17T12:08:01.914Z,3.40
2019-05-17T12:10:32.906Z,3.40
2019-05-17T12:13:03.308Z,3.77
2019-05-17T12:15:44.577Z,4.10
2019-05-17T12:18:05.861Z,3.40
2019-05-17T12:20:36.238Z,3.50
2019-05-17T12:23:06.605Z,3.02
2019-05-17T12:25:37.003Z,3.83
2019-05-17T12:28:07.375Z,3.52
2019-05-17T12:30:37.839Z,3.50
2019-05-17T12:33:08.201Z,3.15
2019-05-17T12:35:38.583Z,3.67
2019-05-17T12:38:08.955Z,3.70
2019-05-17T12:40:39.346Z,3.52
2019-05-17T12:43:09.731Z,3.80
2019-05-17T12:45:40.116Z,3.98
2019-05-17T12:48:10.506Z,3.40
2019-05-17T12:50:40.911Z,3.15
2019-05-17T12:53:11.278Z,3.30
2019-05-17T12:55:41.750Z,3.52
2019-05-17T12:58:12.128Z,3.92
2019-05-17T13:00:42.525Z,3.83
2019-05-17T13:03:12.921Z,3.70
2019-05-17T13:05:43.294Z,3.80
2019-05-17T13:08:13.680Z,3.52
2019-05-17T13:10:44.132Z,3.92
2019-05-17T13:13:14.500Z,3.17
2019-05-17T13:15:45.235Z,4.10
2019-05-17T13:18:15.600Z,3.47
2019-05-17T13:20:45.993Z,3.15
2019-05-17T13:23:16.372Z,4.47
2019-05-17T13:25:47.599Z,3.92
2019-05-17T13:28:17.977Z,3.83
2019-05-17T13:30:49.101Z,4.03
2019-05-17T13:33:19.469Z,3.90
2019-05-17T13:35:49.831Z,3.75
2019-05-17T13:38:20.522Z,3.25
2019-05-17T13:40:51.174Z,3.90
2019-05-17T13:43:21.602Z,3.67
2019-05-17T13:45:51.970Z,3.27
2019-05-17T13:48:22.358Z,4.15
2019-05-17T13:50:52.845Z,3.67
2019-05-17T13:53:23.303Z,3.87
2019-05-17T13:55:53.699Z,3.77
2019-05-17T13:58:24.087Z,3.67
2019-05-17T14:00:54.468Z,3.90
2019-05-17T14:03:24.898Z,3.90
2019-05-17T14:05:55.245Z,3.58
2019-05-17T14:08:25.649Z,3.47
2019-05-17T14:10:56.021Z,3.47
2019-05-17T14:13:26.602Z,3.40
2019-05-17T14:15:56.954Z,4.12
2019-05-17T14:18:27.353Z,3.58
2019-05-17T14:20:57.766Z,3.98
2019-05-17T14:23:28.155Z,3.37
2019-05-17T14:25:58.639Z,3.67
2019-05-17T14:28:29.102Z,3.15
2019-05-17T14:30:59.465Z,3.58
2019-05-17T14:33:29.977Z,3.60
2019-05-17T14:36:00.438Z,3.30
2019-05-17T14:38:31.898Z,3.50
2019-05-17T14:41:07.847Z,3.52
2019-05-17T14:43:34.414Z,3.42
2019-05-17T14:46:05.858Z,4.08
2019-05-17T14:48:36.496Z,4.12
2019-05-17T14:51:06.877Z,3.90
2019-05-17T14:53:37.469Z,3.77
2019-05-17T14:56:07.840Z,4.33
2019-05-17T14:58:39.675Z,4.70
2019-05-17T15:01:10.068Z,3.92
2019-05-17T15:03:40.451Z,4.47
2019-05-17T15:06:11.221Z,4.53
2019-05-17T15:08:41.590Z,4.28
2019-05-17T15:11:12.094Z,4.47
2019-05-17T15:13:42.618Z,4.50
2019-05-17T15:16:13.005Z,4.05
2019-05-17T15:18:43.371Z,4.45
2019-05-17T15:21:13.761Z,4.55
2019-05-17T15:23:44.134Z,4.55
2019-05-17T15:26:14.543Z,4.30
2019-05-17T15:28:44.894Z,4.25
2019-05-17T15:31:15.279Z,4.20
2019-05-17T15:33:46.743Z,4.85
2019-05-17T15:36:17.434Z,4.30
2019-05-17T15:38:47.743Z,3.98
2019-05-17T15:41:18.159Z,4.22
2019-05-17T15:43:48.510Z,3.87
2019-05-17T15:46:19.247Z,4.60
2019-05-17T15:48:49.621Z,4.03
2019-05-17T15:51:20.013Z,4.47
2019-05-17T15:53:50.381Z,3.87
2019-05-17T15:56:21.006Z,4.35
2019-05-17T15:58:51.383Z,5.00
2019-05-17T16:01:21.788Z,3.75
2019-05-17T16:03:52.179Z,4.50
2019-05-17T16:06:22.724Z,4.70
2019-05-17T16:08:53.101Z,4.53
2019-05-17T16:11:23.490Z,4.35
2019-05-17T16:13:53.861Z,4.62
2019-05-17T16:16:24.254Z,4.62
2019-05-17T16:18:54.616Z,4.85
2019-05-17T16:21:25.016Z,4.12
2019-05-17T16:23:55.387Z,4.80
2019-05-17T16:26:25.790Z,4.62
2019-05-17T16:28:56.164Z,4.83
2019-05-17T16:31:26.550Z,4.83
2019-05-17T16:33:56.922Z,4.25
2019-05-17T16:36:27.330Z,5.25
2019-05-17T16:38:57.711Z,5.22
2019-05-17T16:41:28.231Z,4.78
2019-05-17T16:43:58.607Z,5.42
2019-05-17T16:46:29.192Z,6.17
2019-05-17T16:49:00.537Z,6.17
2019-05-17T16:51:30.928Z,5.47
2019-05-17T16:54:01.303Z,5.40
2019-05-17T16:56:31.716Z,5.95
2019-05-17T16:59:02.489Z,5.70
2019-05-17T17:01:32.986Z,6.53
2019-05-17T17:04:03.381Z,6.17
2019-05-17T17:06:33.820Z,6.15
2019-05-17T17:09:05.427Z,5.85
2019-05-17T17:11:35.817Z,6.05
2019-05-17T17:14:06.591Z,5.35
2019-05-17T17:16:36.985Z,6.25
2019-05-17T17:19:07.626Z,6.67
2019-05-17T17:21:38.020Z,6.20
2019-05-17T17:24:08.391Z,6.25
2019-05-17T17:26:38.895Z,8.95
2019-05-17T17:29:10.309Z,6.42
2019-05-17T17:31:40.902Z,6.92
2019-05-17T17:34:11.285Z,6.35
2019-05-17T17:36:41.686Z,6.75
2019-05-17T17:39:12.060Z,6.42
2019-05-17T17:41:42.466Z,7.05
2019-05-17T17:44:12.923Z,6.50
2019-05-17T17:46:45.763Z,6.00
2019-05-17T17:49:16.156Z,5.70
2019-05-17T17:51:46.539Z,6.05
2019-05-17T17:54:16.906Z,6.95
2019-05-17T17:56:47.277Z,5.95
2019-05-17T17:59:17.663Z,6.40
2019-05-17T18:01:48.078Z,6.17
2019-05-17T18:04:18.531Z,6.40
2019-05-17T18:06:48.904Z,6.30
2019-05-17T18:09:19.307Z,6.28
2019-05-17T18:11:49.676Z,6.53
2019-05-17T18:14:20.051Z,7.08
2019-05-17T18:16:50.427Z,6.83
2019-05-17T18:19:20.870Z,6.70
2019-05-17T18:21:51.285Z,6.12
2019-05-17T18:24:21.647Z,6.97
2019-05-17T18:26:52.061Z,6.53
2019-05-17T18:29:22.441Z,7.28
2019-05-17T18:31:52.847Z,7.65
2019-05-17T18:34:23.218Z,6.67
2019-05-17T18:36:53.618Z,6.90
2019-05-17T18:39:23.985Z,7.75
2019-05-17T18:41:54.960Z,6.85
2019-05-17T18:44:28.124Z,8.03
2019-05-17T18:46:58.750Z,6.55
2019-05-17T18:49:29.128Z,8.10
2019-05-17T18:51:59.523Z,7.70
2019-05-17T18:54:30.869Z,7.65
2019-05-17T18:57:01.261Z,7.65
2019-05-17T18:59:31.626Z,8.48
2019-05-17T19:02:02.054Z,7.03
2019-05-17T19:04:32.432Z,7.83
2019-05-17T19:07:02.824Z,8.13
2019-05-17T19:09:33.467Z,7.17
2019-05-17T19:12:04.169Z,7.78
2019-05-17T19:14:42.505Z,8.25
2019-05-17T19:17:06.638Z,6.90
2019-05-17T19:19:37.060Z,8.03
2019-05-17T19:22:07.404Z,7.92
2019-05-17T19:24:37.799Z,8.03
2019-05-17T19:27:08.190Z,7.83
2019-05-17T19:29:38.555Z,7.50
2019-05-17T19:32:08.951Z,8.28
2019-05-17T19:34:39.327Z,7.78
2019-05-17T19:37:09.718Z,7.60
2019-05-17T19:39:40.217Z,7.45
2019-05-17T19:42:10.687Z,7.40
2019-05-17T19:44:41.245Z,7.70
2019-05-17T19:47:11.620Z,8.45
2019-05-17T19:49:42.000Z,7.47
2019-05-17T19:52:12.442Z,7.50
2019-05-17T19:54:42.768Z,8.23
2019-05-17T19:57:13.167Z,7.78
2019-05-17T19:59:43.542Z,7.62
2019-05-17T20:02:13.947Z,7.47
2019-05-17T20:04:44.324Z,7.72
2019-05-17T20:07:15.039Z,7.50
2019-05-17T20:09:45.414Z,7.72
2019-05-17T20:12:17.727Z,7.45
2019-05-17T20:14:48.108Z,7.10
2019-05-17T20:17:18.502Z,7.65
2019-05-17T20:19:48.872Z,7.35
2019-05-17T20:22:19.337Z,7.97
2019-05-17T20:24:49.712Z,8.25
2019-05-17T20:27:20.119Z,7.90
2019-05-17T20:29:50.493Z,7.10
2019-05-17T20:32:20.911Z,7.78
2019-05-17T20:34:51.297Z,8.23
2019-05-17T20:37:21.734Z,7.67
2019-05-17T20:39:52.076Z,8.70
2019-05-17T20:42:22.477Z,8.15
2019-05-17T20:44:52.857Z,8.43
2019-05-17T20:47:23.270Z,7.75
2019-05-17T20:49:53.646Z,7.35
2019-05-17T20:52:24.296Z,7.80
2019-05-17T20:54:54.744Z,7.67
2019-05-17T20:57:25.139Z,8.53
2019-05-17T21:00:08.765Z,9.78
2019-05-17T21:02:39.186Z,7.90
2019-05-17T21:05:11.439Z,9.30
2019-05-17T21:07:41.834Z,9.03
2019-05-17T21:10:13.910Z,9.33
2019-05-17T21:12:45.565Z,8.75
2019-05-17T21:15:16.153Z,8.98
2019-05-17T21:17:46.550Z,9.55
2019-05-17T21:20:17.445Z,8.73
2019-05-17T21:22:47.835Z,8.80
2019-05-17T21:25:18.859Z,8.15
2019-05-17T21:27:49.269Z,9.18
2019-05-17T21:30:19.778Z,9.03
2019-05-17T21:32:50.190Z,9.30
2019-05-17T21:35:20.580Z,10.35
2019-05-17T21:37:52.046Z,9.15
2019-05-17T21:40:23.490Z,9.73
2019-05-17T21:42:53.908Z,9.65
2019-05-17T21:45:24.283Z,9.10
2019-05-17T21:47:54.986Z,10.23
2019-05-17T21:50:25.358Z,11.08
2019-05-17T21:52:55.870Z,11.18
2019-05-17T21:55:26.260Z,10.60
2019-05-17T21:57:56.708Z,10.58
2019-05-17T22:01:03.617Z,10.75
2019-05-17T22:03:34.089Z,10.10
2019-05-17T22:06:04.547Z,10.35
2019-05-17T22:08:34.962Z,10.80
2019-05-17T22:11:05.577Z,10.80
2019-05-17T22:13:36.303Z,11.10
2019-05-17T22:16:19.237Z,11.35
2019-05-17T22:18:38.907Z,10.53
2019-05-17T22:21:09.453Z,10.98
2019-05-17T22:23:39.885Z,11.08
2019-05-17T22:26:10.268Z,11.90
2019-05-17T22:28:40.739Z,9.78
2019-05-17T22:31:11.120Z,11.80
2019-05-17T22:33:41.826Z,10.63
2019-05-17T22:36:12.214Z,11.10
2019-05-17T22:38:42.620Z,10.60
2019-05-17T22:41:14.081Z,10.80
2019-05-17T22:43:44.485Z,12.85
2019-05-17T22:46:14.866Z,11.12
2019-05-17T22:48:45.273Z,10.53
2019-05-17T22:51:15.655Z,11.90
2019-05-17T22:53:46.360Z,12.03
2019-05-17T22:56:16.748Z,10.75
2019-05-17T22:58:47.163Z,11.28
2019-05-17T23:01:17.545Z,11.28
2019-05-17T23:03:47.958Z,11.85
2019-05-17T23:06:18.342Z,11.53
2019-05-17T23:08:48.776Z,11.28
2019-05-17T23:11:19.150Z,10.70
2019-05-17T23:13:49.575Z,11.03
2019-05-17T23:16:21.103Z,12.23
2019-05-17T23:19:06.519Z,12.15
2019-05-17T23:21:37.179Z,12.13
2019-05-17T23:24:07.927Z,11.73
2019-05-17T23:26:38.323Z,12.35
2019-05-17T23:29:09.795Z,11.25
2019-05-17T23:31:40.174Z,12.18
2019-05-17T23:34:10.573Z,11.05
2019-05-17T23:36:40.979Z,11.43
2019-05-17T23:39:11.394Z,11.63
2019-05-17T23:41:41.774Z,12.28
2019-05-17T23:44:12.190Z,12.28
2019-05-17T23:46:42.619Z,11.83
2019-05-17T23:49:13.025Z,12.13
2019-05-17T23:51:43.409Z,12.43
2019-05-17T23:54:34.698Z,12.90
2019-05-17T23:57:05.101Z,11.85
2019-05-17T23:59:35.507Z,13.05
